sensor_id;sensor_type;location;lat;lon;timestamp;pressure;altitude;pressure_sealevel;temperature;humidity
64792;BME280;51226;47.504;19.074;2022-08-18T16:12:51;99551.00;;;35.51;22.17
64792;BME280;51226;47.504;19.074;2022-08-18T16:15:54;99556.81;;;35.35;22.84
64792;BME280;51226;47.504;19.074;2022-08-18T16:18:58;99557.31;;;35.40;22.23
64792;BME280;51226;47.504;19.074;2022-08-18T16:22:01;99550.87;;;35.30;22.58
64792;BME280;51226;47.504;19.074;2022-08-18T16:25:08;99557.84;;;35.21;22.65
64792;BME280;51226;47.504;19.074;2022-08-18T16:28:11;99556.12;;;35.20;22.64
64792;BME280;51226;47.504;19.074;2022-08-18T16:31:14;99553.22;;;35.23;22.44
64792;BME280;51226;47.504;19.074;2022-08-18T16:34:18;99556.44;;;35.04;22.65
64792;BME280;51226;47.504;19.074;2022-08-18T16:37:20;99564.19;;;34.98;22.76
64792;BME280;51226;47.504;19.074;2022-08-18T16:40:23;99556.16;;;34.96;22.93
64792;BME280;51226;47.504;19.074;2022-08-18T16:43:29;99555.78;;;34.89;23.09
64792;BME280;51226;47.504;19.074;2022-08-18T16:46:32;99556.28;;;34.83;23.02
64792;BME280;51226;47.504;19.074;2022-08-18T16:49:34;99554.75;;;34.79;23.18
64792;BME280;51226;47.504;19.074;2022-08-18T16:52:38;99548.19;;;34.70;23.31
64792;BME280;51226;47.504;19.074;2022-08-18T16:55:41;99543.63;;;34.71;23.44
64792;BME280;51226;47.504;19.074;2022-08-18T16:58:45;99546.56;;;34.68;23.45
64792;BME280;51226;47.504;19.074;2022-08-18T17:02:08;99545.94;;;34.64;23.75
64792;BME280;51226;47.504;19.074;2022-08-18T17:05:30;99531.13;;;34.57;23.70
64792;BME280;51226;47.504;19.074;2022-08-18T17:08:36;99535.63;;;34.45;23.69
64792;BME280;51226;47.504;19.074;2022-08-18T17:11:40;99531.62;;;34.38;23.79
64792;BME280;51226;47.504;19.074;2022-08-18T17:14:54;99522.38;;;34.29;23.93
64792;BME280;51226;47.504;19.074;2022-08-18T17:17:57;99512.87;;;34.24;24.29
64792;BME280;51226;47.504;19.074;2022-08-18T17:21:06;99518.19;;;34.12;24.53
64792;BME280;51226;47.504;19.074;2022-08-18T17:24:09;99518.63;;;34.06;24.34
64792;BME280;51226;47.504;19.074;2022-08-18T17:27:19;99524.75;;;33.97;24.90
64792;BME280;51226;47.504;19.074;2022-08-18T17:30:35;99517.28;;;33.88;24.89
64792;BME280;51226;47.504;19.074;2022-08-18T17:33:42;99505.41;;;33.77;25.20
64792;BME280;51226;47.504;19.074;2022-08-18T17:36:55;99506.94;;;33.69;25.34
64792;BME280;51226;47.504;19.074;2022-08-18T17:40:10;99499.44;;;33.59;25.80
64792;BME280;51226;47.504;19.074;2022-08-18T17:43:23;99495.78;;;33.48;25.57
64792;BME280;51226;47.504;19.074;2022-08-18T17:46:36;99474.84;;;33.38;25.59
64792;BME280;51226;47.504;19.074;2022-08-18T17:49:42;99468.13;;;33.31;25.96
64792;BME280;51226;47.504;19.074;2022-08-18T17:53:24;99471.72;;;33.19;26.59
64792;BME280;51226;47.504;19.074;2022-08-18T17:56:31;99482.84;;;33.01;34.51
64792;BME280;51226;47.504;19.074;2022-08-18T17:59:45;99493.06;;;32.83;37.45
64792;BME280;51226;47.504;19.074;2022-08-18T18:02:53;99500.81;;;32.62;41.48
64792;BME280;51226;47.504;19.074;2022-08-18T18:12:25;99514.66;;;32.16;40.38
64792;BME280;51226;47.504;19.074;2022-08-18T18:15:31;99515.41;;;32.04;42.46
64792;BME280;51226;47.504;19.074;2022-08-18T18:18:43;99527.00;;;31.91;41.87
64792;BME280;51226;47.504;19.074;2022-08-18T18:22:07;99521.53;;;31.79;41.93
64792;BME280;51226;47.504;19.074;2022-08-18T18:25:29;99528.37;;;31.70;39.67
64792;BME280;51226;47.504;19.074;2022-08-18T18:28:36;99528.97;;;31.61;39.64
64792;BME280;51226;47.504;19.074;2022-08-18T18:31:41;99534.94;;;31.51;39.40
64792;BME280;51226;47.504;19.074;2022-08-18T18:35:01;99538.75;;;31.47;36.79
64792;BME280;51226;47.504;19.074;2022-08-18T18:41:26;99540.88;;;31.42;34.85
64792;BME280;51226;47.504;19.074;2022-08-18T18:44:29;99550.87;;;31.40;33.52
64792;BME280;51226;47.504;19.074;2022-08-18T18:47:44;99554.75;;;31.36;31.34
64792;BME280;51226;47.504;19.074;2022-08-18T18:51:03;99557.44;;;31.36;30.84
64792;BME280;51226;47.504;19.074;2022-08-18T19:01:21;99549.72;;;31.30;30.79
64792;BME280;51226;47.504;19.074;2022-08-18T19:04:38;99545.59;;;31.24;31.17
64792;BME280;51226;47.504;19.074;2022-08-18T19:08:22;99548.56;;;31.19;31.13
64792;BME280;51226;47.504;19.074;2022-08-18T19:15:10;99543.25;;;31.18;31.22
64792;BME280;51226;47.504;19.074;2022-08-18T19:21:26;99548.16;;;31.11;32.19
64792;BME280;51226;47.504;19.074;2022-08-18T19:28:21;99554.09;;;31.02;31.96
64792;BME280;51226;47.504;19.074;2022-08-18T19:31:34;99548.78;;;31.00;32.36
64792;BME280;51226;47.504;19.074;2022-08-18T19:34:41;99555.16;;;30.99;32.13
64792;BME280;51226;47.504;19.074;2022-08-18T19:38:09;99549.84;;;30.98;32.23
64792;BME280;51226;47.504;19.074;2022-08-18T19:41:22;99553.75;;;30.92;32.42
64792;BME280;51226;47.504;19.074;2022-08-18T19:44:57;99546.81;;;30.88;32.44
64792;BME280;51226;47.504;19.074;2022-08-18T19:48:42;99545.97;;;30.88;32.55
64792;BME280;51226;47.504;19.074;2022-08-18T19:51:56;99544.37;;;30.83;32.60
64792;BME280;51226;47.504;19.074;2022-08-18T20:22:45;99562.78;;;30.61;34.48
64792;BME280;51226;47.504;19.074;2022-08-18T20:25:49;99566.78;;;30.54;34.23
64792;BME280;51226;47.504;19.074;2022-08-18T20:28:52;99561.47;;;30.52;34.16
64792;BME280;51226;47.504;19.074;2022-08-18T20:32:00;99551.78;;;30.50;34.55
64792;BME280;51226;47.504;19.074;2022-08-18T20:35:20;99540.59;;;30.41;34.74
64792;BME280;51226;47.504;19.074;2022-08-18T20:38:31;99547.88;;;30.39;35.14
64792;BME280;51226;47.504;19.074;2022-08-18T20:41:43;99545.19;;;30.39;34.95
64792;BME280;51226;47.504;19.074;2022-08-18T20:48:46;99550.50;;;30.41;34.84
64792;BME280;51226;47.504;19.074;2022-08-18T20:51:46;99546.91;;;30.40;34.81
64792;BME280;51226;47.504;19.074;2022-08-18T20:55:04;99568.34;;;30.26;35.22
64792;BME280;51226;47.504;19.074;2022-08-18T20:58:18;99570.34;;;30.22;35.11
64792;BME280;51226;47.504;19.074;2022-08-18T21:01:27;99575.91;;;30.19;35.18
64792;BME280;51226;47.504;19.074;2022-08-18T21:04:36;99573.19;;;30.19;35.46
64792;BME280;51226;47.504;19.074;2022-08-18T21:08:08;99585.75;;;30.19;35.69
64792;BME280;51226;47.504;19.074;2022-08-18T21:11:43;99586.91;;;30.15;35.44
64792;BME280;51226;47.504;19.074;2022-08-18T21:14:50;99591.94;;;30.21;35.12
64792;BME280;51226;47.504;19.074;2022-08-18T21:17:57;99607.13;;;30.06;35.83
64792;BME280;51226;47.504;19.074;2022-08-18T21:21:03;99610.75;;;30.05;35.64
64792;BME280;51226;47.504;19.074;2022-08-18T21:24:18;99610.66;;;30.06;35.45
64792;BME280;51226;47.504;19.074;2022-08-18T21:27:35;99619.44;;;29.94;35.69
64792;BME280;51226;47.504;19.074;2022-08-18T21:30:53;99620.78;;;29.85;36.03
64792;BME280;51226;47.504;19.074;2022-08-18T21:33:58;99626.41;;;29.81;36.06
64792;BME280;51226;47.504;19.074;2022-08-18T21:37:04;99630.81;;;29.82;36.01
64792;BME280;51226;47.504;19.074;2022-08-18T21:40:11;99636.28;;;29.80;36.01
64792;BME280;51226;47.504;19.074;2022-08-18T21:47:02;99640.03;;;29.78;36.14
64792;BME280;51226;47.504;19.074;2022-08-18T21:50:13;99651.69;;;29.77;36.42
64792;BME280;51226;47.504;19.074;2022-08-18T21:53:22;99648.22;;;29.74;36.57
64792;BME280;51226;47.504;19.074;2022-08-18T21:56:32;99659.91;;;29.73;36.40
64792;BME280;51226;47.504;19.074;2022-08-18T21:59:35;99661.03;;;29.69;36.48
64792;BME280;51226;47.504;19.074;2022-08-18T22:02:39;99659.56;;;29.64;36.72
64792;BME280;51226;47.504;19.074;2022-08-18T22:05:54;99660.56;;;29.61;36.75
64792;BME280;51226;47.504;19.074;2022-08-18T22:09:14;99665.94;;;29.61;36.70
64792;BME280;51226;47.504;19.074;2022-08-18T22:12:36;99678.75;;;29.56;36.78
64792;BME280;51226;47.504;19.074;2022-08-18T22:15:57;99684.44;;;29.50;36.85
64792;BME280;51226;47.504;19.074;2022-08-18T22:22:29;99696.53;;;29.41;37.06
64792;BME280;51226;47.504;19.074;2022-08-18T22:26:04;99695.03;;;29.35;37.26
64792;BME280;51226;47.504;19.074;2022-08-18T22:29:30;99693.28;;;29.34;37.33
64792;BME280;51226;47.504;19.074;2022-08-18T22:32:36;99699.13;;;29.25;37.50
64792;BME280;51226;47.504;19.074;2022-08-18T22:35:39;99709.78;;;29.27;37.70
64792;BME280;51226;47.504;19.074;2022-08-18T22:38:42;99717.91;;;29.25;37.72
64792;BME280;51226;47.504;19.074;2022-08-18T22:41:46;99711.69;;;29.25;37.67
64792;BME280;51226;47.504;19.074;2022-08-18T22:44:49;99721.56;;;29.24;37.89
64792;BME280;51226;47.504;19.074;2022-08-18T22:47:51;99712.72;;;29.22;37.84
64792;BME280;51226;47.504;19.074;2022-08-18T22:50:54;99711.97;;;29.18;37.99
64792;BME280;51226;47.504;19.074;2022-08-18T22:54:01;99713.84;;;29.16;38.00
64792;BME280;51226;47.504;19.074;2022-08-18T22:57:04;99719.28;;;29.15;38.10
64792;BME280;51226;47.504;19.074;2022-08-18T23:00:11;99716.88;;;29.10;38.13
64792;BME280;51226;47.504;19.074;2022-08-18T23:03:14;99708.12;;;29.05;38.22
64792;BME280;51226;47.504;19.074;2022-08-18T23:06:17;99703.03;;;29.00;38.37
64792;BME280;51226;47.504;19.074;2022-08-18T23:09:26;99711.37;;;28.94;38.47
64792;BME280;51226;47.504;19.074;2022-08-18T23:12:28;99711.44;;;28.93;38.52
64792;BME280;51226;47.504;19.074;2022-08-18T23:15:35;99704.50;;;28.89;38.57
64792;BME280;51226;47.504;19.074;2022-08-18T23:18:49;99705.50;;;28.86;38.67
64792;BME280;51226;47.504;19.074;2022-08-18T23:21:53;99691.28;;;28.84;38.92
64792;BME280;51226;47.504;19.074;2022-08-18T23:24:56;99688.81;;;28.79;38.98
64792;BME280;51226;47.504;19.074;2022-08-18T23:27:59;99686.34;;;28.75;39.16
64792;BME280;51226;47.504;19.074;2022-08-18T23:31:03;99690.16;;;28.71;39.28
64792;BME280;51226;47.504;19.074;2022-08-18T23:34:06;99688.47;;;28.68;39.27
64792;BME280;51226;47.504;19.074;2022-08-18T23:37:09;99678.84;;;28.64;39.50
64792;BME280;51226;47.504;19.074;2022-08-18T23:40:12;99678.97;;;28.61;39.54
64792;BME280;51226;47.504;19.074;2022-08-18T23:43:19;99682.78;;;28.57;39.73
64792;BME280;51226;47.504;19.074;2022-08-18T23:46:26;99673.94;;;28.53;39.88
64792;BME280;51226;47.504;19.074;2022-08-18T23:49:29;99673.22;;;28.50;40.05
64792;BME280;51226;47.504;19.074;2022-08-18T23:52:32;99671.78;;;28.42;40.24
64792;BME280;51226;47.504;19.074;2022-08-18T23:55:36;99677.34;;;28.38;40.26
64792;BME280;51226;47.504;19.074;2022-08-18T23:58:39;99680.25;;;28.33;40.37
